Bear Lake, Canada
Current Conditions -  °F | °C
As of 10:00 AM on Thursday 29 Jan 2015 (Local Time) from CYYD Reporting Station
Broken Clouds Broken Clouds  
Wind Chill: 32°   Ceiling: 2000
Heat Index: 32°   Visibility: 20mi
Dew Point: 30°   Wind: 0mph
Humidity: 93%   Direction: NA
Pressure: 30.26"   Gusts: NA
Location:  56.2°N, 126.85°W
Report Text: CYYD 291800Z 00000KT 20SM FEW003 SCT006 BKN020 BKN060 M00/M01 A3026 RMK SF1SF2SC2SC2 SLP269
Loading
Personal Weather Stations






























Interactive Weather Map New forecast layout! Learn more

10-Day Weather Forecast

Advertisements
Track Severe Weather on mobile